Terminal Aerodrome Forecast
Issued by NWS

Home | Current Version | Previous Version | Graphics & Text | Print | Product List | Glossary On
Versions: 1 2 3 4 5 6 7 8 9 10 11 12 13 14 15 16 17 18 19 20 21 22 23 24 25 26
000
FTUS43 KLOT 191736
TAFGYY
TAF
KGYY 191736Z 1918/2018 17007KT 2SM -SHRADZ BR OVC004
      TEMPO 1918/1919 3/4SM -DZ BR OVC003
     FM191900 19013G21KT 2SM -SHRA BR OVC006 WS015/22050KT
     FM200600 21012KT 1 1/2SM SHRA BR VCTS SCT003 OVC007CB
      TEMPO 2008/2012 1SM TSRA OVC005CB
     FM201200 21012KT 1 1/2SM SHRA BR SCT003 OVC007=

USA.gov is the U.S. government's official web portal to all federal, state and local government web resources and services.